createdAt,value
2018-04-02T00:01:26.938Z,5.4
2018-04-02T00:06:26.788Z,5.4
2018-04-02T00:11:26.798Z,5.4
2018-04-02T00:16:26.810Z,5.5
2018-04-02T00:21:26.827Z,5.5
2018-04-02T00:26:26.989Z,5.5
2018-04-02T00:31:26.906Z,5.5
2018-04-02T00:36:26.979Z,5.6
2018-04-02T00:41:27.015Z,5.6
2018-04-02T00:46:27.034Z,5.6
2018-04-02T00:51:26.959Z,5.7
2018-04-02T00:56:26.833Z,5.7
2018-04-02T01:01:27.036Z,5.7
2018-04-02T01:06:26.987Z,5.7
2018-04-02T01:11:27.019Z,5.7
2018-04-02T01:16:27.060Z,5.7
2018-04-02T01:21:26.792Z,5.7
2018-04-02T01:26:26.843Z,5.7
2018-04-02T01:31:30.337Z,5.8
2018-04-02T01:36:35.571Z,5.8
2018-04-02T01:41:30.485Z,5.8
2018-04-02T01:46:30.324Z,5.8
2018-04-02T01:51:30.324Z,5.8
2018-04-02T01:56:30.479Z,5.8
2018-04-02T02:01:30.522Z,5.9
2018-04-02T02:06:30.338Z,5.9
2018-04-02T02:11:30.351Z,5.9
2018-04-02T02:16:30.467Z,5.9
2018-04-02T02:21:30.419Z,5.9
2018-04-02T02:26:30.463Z,5.9
2018-04-02T02:31:30.560Z,5.9
2018-04-02T02:36:30.558Z,5.9
2018-04-02T02:41:30.365Z,5.9
2018-04-02T02:46:30.495Z,5.9
2018-04-02T02:51:30.553Z,5.9
2018-04-02T02:56:30.584Z,5.9
2018-04-02T03:01:30.535Z,5.9
2018-04-02T03:06:30.328Z,5.9
2018-04-02T03:11:30.371Z,5.8
2018-04-02T03:16:30.381Z,5.8
2018-04-02T03:21:30.579Z,5.8
2018-04-02T03:26:30.372Z,5.7
2018-04-02T03:31:30.493Z,5.6
2018-04-02T03:36:30.548Z,5.6
2018-04-02T03:41:30.589Z,5.5
2018-04-02T03:46:30.501Z,5.6
2018-04-02T03:51:30.582Z,5.6
2018-04-02T03:56:30.395Z,5.6
2018-04-02T04:01:30.622Z,5.6
2018-04-02T04:06:30.364Z,5.6
2018-04-02T04:11:30.394Z,5.6
2018-04-02T04:16:30.419Z,5.6
2018-04-02T04:21:30.775Z,5.6
2018-04-02T04:26:30.704Z,5.6
2018-04-02T04:31:30.723Z,5.6
2018-04-02T04:36:30.564Z,5.6
2018-04-02T04:41:30.789Z,5.6
2018-04-02T04:46:30.580Z,5.6
2018-04-02T04:51:30.782Z,5.6
2018-04-02T04:56:30.575Z,5.6
2018-04-02T05:01:30.589Z,5.6
2018-04-02T05:06:30.761Z,5.6
2018-04-02T05:11:30.804Z,5.6
2018-04-02T05:16:30.837Z,5.7
2018-04-02T05:21:30.599Z,5.7
2018-04-02T05:26:30.559Z,5.7
2018-04-02T05:31:30.826Z,5.7
2018-04-02T05:36:50.166Z,5.8
2018-04-02T05:41:40.423Z,5.8
2018-04-02T05:46:40.181Z,5.8
2018-04-02T05:51:40.212Z,5.9
2018-04-02T05:56:40.164Z,5.9
2018-04-02T06:01:40.318Z,6
2018-04-02T06:06:40.252Z,6.2
2018-04-02T06:11:40.513Z,6.5
2018-04-02T06:16:40.303Z,6.6
2018-04-02T06:21:40.318Z,6.6
2018-04-02T06:26:41.376Z,6.6
2018-04-02T06:31:46.715Z,6.7
2018-04-02T06:36:41.592Z,6.7
2018-04-02T06:41:41.532Z,6.7
2018-04-02T06:46:41.391Z,6.8
2018-04-02T06:51:41.493Z,6.8
2018-04-02T06:56:41.392Z,6.7
2018-04-02T07:01:41.382Z,7.1
2018-04-02T07:06:41.602Z,7.6
2018-04-02T07:11:41.458Z,7.8
2018-04-02T07:16:41.451Z,7.8
2018-04-02T07:21:41.478Z,7.9
2018-04-02T07:26:42.099Z,7.8
2018-04-02T07:31:41.452Z,8
2018-04-02T07:36:41.488Z,7.9
2018-04-02T07:41:41.472Z,8.5
2018-04-02T07:46:41.479Z,8.6
2018-04-02T07:51:41.496Z,8.7
2018-04-02T07:56:41.492Z,8.5
2018-04-02T08:01:41.488Z,8.9
2018-04-02T08:06:41.486Z,9.1
2018-04-02T08:11:41.985Z,9.5
2018-04-02T08:16:41.488Z,9.2
2018-04-02T08:21:42.256Z,9.3
2018-04-02T08:26:41.445Z,9.6
2018-04-02T08:31:41.535Z,9.6
2018-04-02T08:36:41.499Z,9.8
2018-04-02T08:41:42.189Z,10.3
2018-04-02T08:46:41.530Z,10.5
2018-04-02T08:51:41.550Z,10.2
2018-04-02T08:56:41.529Z,10.1
2018-04-02T09:01:41.466Z,10.3
2018-04-02T09:06:41.507Z,10.1
2018-04-02T09:11:41.514Z,10.2
2018-04-02T09:16:41.531Z,10.3
2018-04-02T09:21:41.549Z,10.3
2018-04-02T09:26:41.522Z,10.6
2018-04-02T09:31:41.529Z,10.4
2018-04-02T09:36:41.721Z,10.5
2018-04-02T09:41:41.539Z,10.5
2018-04-02T09:46:41.531Z,11
2018-04-02T09:51:42.364Z,11.1
2018-04-02T09:56:41.483Z,11
2018-04-02T10:01:41.552Z,11.1
2018-04-02T10:06:41.556Z,11.2
2018-04-02T10:11:41.540Z,11.3
2018-04-02T10:16:41.665Z,11.7
2018-04-02T10:21:41.571Z,11.6
2018-04-02T10:26:41.562Z,12.1
2018-04-02T10:31:41.683Z,12.2
2018-04-02T10:36:41.565Z,11.9
2018-04-02T10:41:41.574Z,11.7
2018-04-02T10:46:41.675Z,11.9
2018-04-02T10:51:41.702Z,12.4
2018-04-02T10:56:41.585Z,12.5
2018-04-02T11:01:41.738Z,12.7
2018-04-02T11:06:41.590Z,12.8
2018-04-02T11:11:41.609Z,13.1
2018-04-02T11:16:42.270Z,13.4
2018-04-02T11:21:47.083Z,13.2
2018-04-02T11:26:42.141Z,13.1
2018-04-02T11:31:42.004Z,13.4
2018-04-02T11:36:42.009Z,13.3
2018-04-02T11:41:42.088Z,13.5
2018-04-02T11:46:42.183Z,12.8
2018-04-02T11:51:41.961Z,13
2018-04-02T11:56:42.137Z,13.4
2018-04-02T12:01:42.158Z,13.4
2018-04-02T12:06:42.242Z,13.5
2018-04-02T12:11:42.112Z,13.8
2018-04-02T12:16:42.127Z,13.8
2018-04-02T12:21:42.214Z,14
2018-04-02T12:26:42.014Z,13.5
2018-04-02T12:31:42.143Z,13.7
2018-04-02T12:36:41.969Z,13.5
2018-04-02T12:41:42.015Z,13.5
2018-04-02T12:46:42.174Z,13.5
2018-04-02T12:51:42.047Z,13.2
2018-04-02T12:56:42.239Z,13.5
2018-04-02T13:01:42.302Z,13.9
2018-04-02T13:06:42.216Z,13.5
2018-04-02T13:11:42.042Z,13.6
2018-04-02T13:16:42.042Z,13.7
2018-04-02T13:21:42.035Z,14
2018-04-02T13:26:42.051Z,14.1
2018-04-02T13:31:42.041Z,14.3
2018-04-02T13:36:42.068Z,14.4
2018-04-02T13:41:42.065Z,14.6
2018-04-02T13:46:42.301Z,14.6
2018-04-02T13:51:42.067Z,14.7
2018-04-02T13:56:42.080Z,14.5
2018-04-02T14:01:42.034Z,14.2
2018-04-02T14:06:42.071Z,14.3
2018-04-02T14:11:42.143Z,14.3
2018-04-02T14:16:42.086Z,13.9
2018-04-02T14:21:42.113Z,14.1
2018-04-02T14:26:42.142Z,14
2018-04-02T14:31:42.140Z,14
2018-04-02T14:36:42.156Z,13.6
2018-04-02T14:41:42.158Z,13.6
2018-04-02T14:50:51.577Z,13.8
2018-04-02T14:55:51.785Z,13.8
2018-04-02T15:00:51.859Z,13.8
2018-04-02T15:05:51.878Z,13.7
2018-04-02T15:10:55.047Z,13.7
2018-04-02T15:15:52.013Z,13.7
2018-04-02T15:20:52.093Z,13.7
2018-04-02T15:25:52.072Z,13.5
2018-04-02T15:30:52.007Z,13.3
2018-04-02T15:35:52.037Z,13.4
2018-04-02T15:40:52.030Z,13.5
2018-04-02T15:45:52.489Z,13.4
2018-04-02T15:50:52.032Z,13.3
2018-04-02T15:55:52.018Z,13.3
2018-04-02T16:00:52.042Z,13.3
2018-04-02T16:05:52.026Z,13.1
2018-04-02T16:10:52.364Z,13
2018-04-02T16:15:52.064Z,12.9
2018-04-02T16:20:52.051Z,12.9
2018-04-02T16:25:54.829Z,12.8
2018-04-02T16:30:52.052Z,12.7
2018-04-02T16:35:52.080Z,12.6
2018-04-02T16:40:52.216Z,12.5
2018-04-02T16:45:52.243Z,12.4
2018-04-02T16:50:52.241Z,12.3
2018-04-02T16:55:52.220Z,12.2
2018-04-02T17:00:52.219Z,12
2018-04-02T17:05:52.254Z,12
2018-04-02T17:10:52.423Z,11.8
2018-04-02T17:15:52.250Z,11.7
2018-04-02T17:20:52.347Z,11.6
2018-04-02T17:25:57.390Z,11.4
2018-04-02T17:31:04.293Z,11.3
2018-04-02T17:36:07.471Z,11.2
2018-04-02T17:41:12.676Z,11
2018-04-02T17:46:12.753Z,11
2018-04-02T17:51:12.663Z,10.9
2018-04-02T17:56:12.701Z,10.8
2018-04-02T18:01:12.650Z,10.7
2018-04-02T18:06:12.638Z,10.6
2018-04-02T18:11:12.677Z,10.5
2018-04-02T18:16:12.697Z,10.4
2018-04-02T18:21:12.689Z,10.2
2018-04-02T18:26:12.689Z,10.1
2018-04-02T18:31:12.684Z,10.1
2018-04-02T18:36:12.683Z,10
2018-04-02T18:41:12.693Z,9.9
2018-04-02T18:46:12.639Z,9.9
2018-04-02T18:51:12.872Z,9.8
2018-04-02T18:56:12.715Z,9.8
2018-04-02T19:01:12.713Z,9.7
2018-04-02T19:06:12.679Z,9.6
2018-04-02T19:11:12.730Z,9.6
2018-04-02T19:16:12.735Z,9.5
2018-04-02T19:21:12.702Z,9.4
2018-04-02T19:26:12.743Z,9.3
2018-04-02T19:31:12.712Z,9.1
2018-04-02T19:36:17.460Z,8.9
2018-04-02T19:41:22.822Z,8.8
2018-04-02T19:46:22.912Z,8.6
2018-04-02T19:51:27.779Z,8.5
2018-04-02T19:56:32.901Z,8.4
2018-04-02T20:01:27.864Z,8.3
2018-04-02T20:06:27.781Z,8.2
2018-04-02T20:11:27.769Z,8.2
2018-04-02T20:16:27.772Z,8.1
2018-04-02T20:21:27.770Z,8
2018-04-02T20:26:29.413Z,8
2018-04-02T20:31:27.762Z,8
2018-04-02T20:36:27.789Z,7.9
2018-04-02T20:41:27.760Z,7.9
2018-04-02T20:46:27.860Z,7.8
2018-04-02T20:51:32.144Z,7.7
2018-04-02T20:56:37.300Z,7.6
2018-04-02T21:01:42.565Z,7.5
2018-04-02T21:06:42.284Z,7.5
2018-04-02T21:11:42.439Z,7.4
2018-04-02T21:16:42.298Z,7.4
2018-04-02T21:21:42.301Z,7.4
2018-04-02T21:26:42.308Z,7.3
2018-04-02T21:31:42.312Z,7.3
2018-04-02T21:36:42.520Z,7.3
2018-04-02T21:41:42.567Z,7.2
2018-04-02T21:46:42.483Z,7.1
2018-04-02T21:51:42.532Z,7.2
2018-04-02T21:56:42.329Z,7.2
2018-04-02T22:01:46.955Z,7.1
2018-04-02T22:06:52.330Z,7.1
2018-04-02T22:11:55.614Z,7.1
2018-04-02T22:16:55.588Z,7
2018-04-02T22:21:55.436Z,6.9
2018-04-02T22:26:55.436Z,6.9
2018-04-02T22:31:55.442Z,6.8
2018-04-02T22:36:55.458Z,6.7
2018-04-02T22:41:55.448Z,6.6
2018-04-02T22:46:55.620Z,6.5
2018-04-02T22:51:55.616Z,6.6
2018-04-02T22:56:55.696Z,6.6
2018-04-02T23:01:55.709Z,6.3
2018-04-02T23:06:55.719Z,6.3
2018-04-02T23:11:57.313Z,6.3
2018-04-02T23:16:57.323Z,6.3
2018-04-02T23:21:57.460Z,6.2
2018-04-02T23:26:57.310Z,6.2
2018-04-02T23:31:57.301Z,6.1
2018-04-02T23:36:57.473Z,6.1
2018-04-02T23:41:57.343Z,5.9
2018-04-02T23:46:57.498Z,5.9
2018-04-02T23:51:57.317Z,5.8
2018-04-02T23:56:57.335Z,5.6
